Time;durP1;ratioP1;P1;durP2;ratioP2;P2;SDS_P1;SDS_P2;PMS_P1;PMS_P2;Temp;Humidity;BMP_temperature;BMP_pressure;BME280_temperature;BME280_humidity;BME280_pressure;Samples;Min_cycle;Max_cycle;Signal;HPM_P1;HPM_P2
2021/12/12 00:02:06;;;;;;;13.97;7.50;;;8.70;58.10;;;;;;5050033;28;20880;-87
2021/12/12 00:04:36;;;;;;;19.20;11.13;;;8.60;58.20;;;;;;5038052;28;20833;-87
2021/12/12 00:07:09;;;;;;;21.07;10.10;;;8.60;58.40;;;;;;5074077;28;20935;-85
2021/12/12 00:09:40;;;;;;;24.87;11.10;;;8.70;58.20;;;;;;5039434;28;20485;-87
2021/12/12 00:12:12;;;;;;;22.57;10.90;;;8.90;58.10;;;;;;5065963;28;20455;-87
2021/12/12 00:14:41;;;;;;;27.33;13.33;;;8.90;57.80;;;;;;5053265;28;20453;-87
2021/12/12 00:17:10;;;;;;;12.90;6.43;;;9.00;57.50;;;;;;5056856;28;20469;-89
2021/12/12 00:19:38;;;;;;;14.17;7.17;;;8.90;56.70;;;;;;5039621;28;20521;-87
2021/12/12 00:22:09;;;;;;;9.23;5.87;;;9.00;57.20;;;;;;5054171;28;20453;-87
2021/12/12 00:24:37;;;;;;;8.77;5.50;;;9.10;57.20;;;;;;5040763;28;20461;-87
2021/12/12 00:27:04;;;;;;;13.23;5.90;;;9.20;57.10;;;;;;5057922;28;20474;-86
2021/12/12 00:29:33;;;;;;;14.97;6.37;;;9.20;56.90;;;;;;5058366;28;20484;-87
2021/12/12 00:32:06;;;;;;;11.83;6.47;;;9.20;56.50;;;;;;5057355;28;20447;-87
2021/12/12 00:34:37;;;;;;;10.83;5.67;;;9.10;56.80;;;;;;5039428;28;20445;-87
2021/12/12 00:37:08;;;;;;;14.00;6.20;;;9.10;56.80;;;;;;5075907;28;20982;-86
2021/12/12 00:39:38;;;;;;;12.03;7.13;;;9.00;56.70;;;;;;5043160;28;20478;-87
2021/12/12 00:42:08;;;;;;;11.00;6.57;;;9.00;56.70;;;;;;5040868;28;21058;-87
2021/12/12 00:44:37;;;;;;;7.07;5.50;;;9.00;56.60;;;;;;5074028;28;20564;-87
2021/12/12 00:47:08;;;;;;;16.13;7.53;;;9.00;56.70;;;;;;5043523;28;20448;-87
2021/12/12 00:49:37;;;;;;;12.90;6.63;;;9.10;56.90;;;;;;5074881;28;20488;-87
2021/12/12 00:52:05;;;;;;;10.80;5.67;;;9.10;56.90;;;;;;5043198;28;20455;-87
2021/12/12 00:54:33;;;;;;;12.47;5.60;;;9.00;56.60;;;;;;5055853;28;20452;-88
2021/12/12 00:57:01;;;;;;;10.80;5.70;;;8.60;56.70;;;;;;5073805;28;20491;-85
2021/12/12 00:59:29;;;;;;;9.30;5.80;;;8.50;56.50;;;;;;5058746;28;20529;-87
2021/12/12 01:01:57;;;;;;;10.07;4.77;;;8.50;57.10;;;;;;5041636;28;20458;-87
2021/12/12 01:04:29;;;;;;;9.40;4.80;;;8.60;57.10;;;;;;5056018;28;20464;-87
2021/12/12 01:06:59;;;;;;;7.70;5.40;;;8.50;56.70;;;;;;5056693;28;20824;-86
2021/12/12 01:09:30;;;;;;;8.50;5.03;;;8.30;56.60;;;;;;5052314;28;20475;-86
2021/12/12 01:12:00;;;;;;;9.40;5.33;;;8.20;56.80;;;;;;5058558;28;20462;-86
2021/12/12 01:14:31;;;;;;;7.37;4.80;;;8.10;57.10;;;;;;5071775;28;20539;-86
2021/12/12 01:17:03;;;;;;;10.30;4.13;;;8.00;57.50;;;;;;5055757;28;20464;-86
2021/12/12 01:19:34;;;;;;;8.90;4.37;;;8.00;57.40;;;;;;5075972;28;20468;-86
2021/12/12 01:22:05;;;;;;;9.67;4.27;;;7.90;57.50;;;;;;5071683;28;20882;-87
2021/12/12 01:24:35;;;;;;;8.30;4.10;;;8.00;57.50;;;;;;5069685;28;20471;-87
2021/12/12 01:27:05;;;;;;;6.27;3.90;;;8.10;56.70;;;;;;5053402;28;20448;-85
2021/12/12 01:29:32;;;;;;;5.43;4.27;;;8.20;56.40;;;;;;5035795;28;20480;-88
2021/12/12 01:32:03;;;;;;;6.33;4.03;;;8.10;56.10;;;;;;5055092;28;20448;-86
2021/12/12 01:34:34;;;;;;;8.30;3.20;;;8.10;56.00;;;;;;5046462;28;21059;-89
2021/12/12 01:37:23;;;;;;;8.70;3.80;;;8.10;56.20;;;;;;5046441;28;20969;-87
2021/12/12 01:39:52;;;;;;;7.07;3.67;;;8.00;56.30;;;;;;5071466;28;21177;-87
2021/12/12 01:42:23;;;;;;;7.63;4.33;;;8.10;56.20;;;;;;5055255;28;20458;-87
2021/12/12 01:44:53;;;;;;;10.83;4.67;;;8.10;56.00;;;;;;5055265;28;20456;-87
2021/12/12 01:47:25;;;;;;;7.97;4.13;;;8.10;56.00;;;;;;5071802;28;20471;-86
2021/12/12 01:49:58;;;;;;;12.63;4.50;;;7.90;56.20;;;;;;5036540;28;21134;-87
2021/12/12 01:52:28;;;;;;;5.17;3.43;;;8.00;56.40;;;;;;5057283;28;21189;-86
2021/12/12 01:55:05;;;;;;;6.73;3.90;;;8.00;56.60;;;;;;5054771;28;20452;-87
2021/12/12 01:57:36;;;;;;;5.70;3.00;;;8.10;56.60;;;;;;5055350;28;20455;-88
2021/12/12 02:00:11;;;;;;;6.63;4.03;;;8.30;56.30;;;;;;5072357;28;20562;-87
2021/12/12 02:02:39;;;;;;;7.10;3.97;;;8.40;55.70;;;;;;5063650;28;20956;-88
2021/12/12 02:05:11;;;;;;;7.80;3.80;;;8.60;55.60;;;;;;5036519;28;20454;-87
2021/12/12 02:07:42;;;;;;;11.63;5.00;;;8.60;55.30;;;;;;5072621;28;20473;-87
2021/12/12 02:10:16;;;;;;;4.00;3.60;;;8.60;55.40;;;;;;5063514;28;20976;-87
2021/12/12 02:12:46;;;;;;;8.60;4.47;;;8.70;55.50;;;;;;5050517;28;20456;-87
2021/12/12 02:15:15;;;;;;;7.77;4.67;;;8.80;55.60;;;;;;5052200;28;20452;-88
2021/12/12 02:17:47;;;;;;;7.07;3.77;;;8.70;55.60;;;;;;5070120;28;20458;-87
2021/12/12 02:20:23;;;;;;;10.30;4.73;;;8.70;55.70;;;;;;5046153;28;21005;-87
2021/12/12 02:23:03;;;;;;;8.23;4.20;;;8.80;55.80;;;;;;5073211;28;20542;-86
2021/12/12 02:36:42;;;;;;;9.87;6.00;;;8.80;55.30;;;;;;5056902;28;20818;-88
2021/12/12 02:39:15;;;;;;;11.90;5.97;;;8.70;55.80;;;;;;5045196;28;20526;-86
2021/12/12 02:41:45;;;;;;;10.60;5.53;;;8.60;55.90;;;;;;5058058;28;20467;-87
2021/12/12 02:44:12;;;;;;;8.70;5.30;;;8.60;56.00;;;;;;5054435;28;20447;-86
2021/12/12 02:46:42;;;;;;;16.40;6.27;;;8.60;56.00;;;;;;5059164;28;20456;-89
2021/12/12 02:49:25;;;;;;;12.20;6.00;;;8.60;56.80;;;;;;5056633;28;20472;-87
2021/12/12 02:51:54;;;;;;;11.43;6.50;;;8.50;56.20;;;;;;5078026;28;20467;-87
2021/12/12 02:54:22;;;;;;;11.33;6.67;;;8.60;56.40;;;;;;5060866;28;20451;-85
2021/12/12 02:56:50;;;;;;;17.07;6.80;;;8.60;56.20;;;;;;5039843;28;20449;-89
2021/12/12 02:59:22;;;;;;;14.20;5.90;;;8.60;56.20;;;;;;5074000;28;20574;-86
2021/12/12 03:01:53;;;;;;;12.80;6.53;;;8.60;56.00;;;;;;5039911;28;20452;-86
2021/12/12 03:04:21;;;;;;;8.17;5.00;;;8.80;56.10;;;;;;5041428;28;20441;-87
2021/12/12 03:06:48;;;;;;;8.60;6.03;;;8.80;55.80;;;;;;5073191;28;20448;-87
2021/12/12 03:09:18;;;;;;;15.27;6.60;;;8.90;55.50;;;;;;5078157;28;20495;-87
2021/12/12 03:11:49;;;;;;;9.70;5.17;;;8.90;55.40;;;;;;5059471;28;20459;-87
2021/12/12 03:14:17;;;;;;;5.60;4.50;;;8.90;55.30;;;;;;5065569;28;21152;-87
2021/12/12 03:16:44;;;;;;;8.30;4.90;;;8.70;55.30;;;;;;5057087;28;21035;-88
2021/12/12 03:19:12;;;;;;;14.13;4.90;;;8.70;55.60;;;;;;5059343;28;20479;-89
2021/12/12 03:21:45;;;;;;;8.00;4.90;;;8.70;55.80;;;;;;5075952;28;20808;-86
2021/12/12 03:24:15;;;;;;;11.53;4.87;;;8.70;55.50;;;;;;5058381;28;20459;-85
2021/12/12 03:26:45;;;;;;;7.70;4.60;;;8.70;55.60;;;;;;5061061;28;20462;-86
2021/12/12 03:29:15;;;;;;;7.00;4.90;;;8.60;55.60;;;;;;5060447;28;20984;-86
2021/12/12 03:31:47;;;;;;;10.87;4.23;;;8.60;55.90;;;;;;5076619;28;20806;-88
2021/12/12 03:34:18;;;;;;;6.80;4.73;;;8.40;55.60;;;;;;5057264;28;20463;-83
2021/12/12 03:36:47;;;;;;;8.60;5.13;;;8.50;55.80;;;;;;5060285;28;20460;-87
2021/12/12 03:39:17;;;;;;;7.50;4.67;;;8.70;55.80;;;;;;5039726;28;20463;-87
2021/12/12 03:41:45;;;;;;;7.00;5.00;;;8.80;55.50;;;;;;5057161;28;20462;-86
2021/12/12 03:44:18;;;;;;;7.67;5.13;;;8.80;55.20;;;;;;5040348;28;20445;-87
2021/12/12 03:46:48;;;;;;;10.63;5.17;;;8.80;55.30;;;;;;5073628;28;20463;-86
2021/12/12 03:49:16;;;;;;;7.43;3.97;;;8.80;55.00;;;;;;5074173;28;20473;-86
2021/12/12 03:51:45;;;;;;;7.60;4.00;;;8.70;55.10;;;;;;5057420;28;21094;-87
2021/12/12 03:54:13;;;;;;;7.27;4.60;;;8.90;55.40;;;;;;5057270;28;20463;-86
2021/12/12 03:56:41;;;;;;;7.13;4.07;;;9.00;54.90;;;;;;5040903;28;20853;-88
2021/12/12 03:59:08;;;;;;;11.00;5.27;;;9.00;54.80;;;;;;5057095;28;20802;-86
2021/12/12 04:01:40;;;;;;;6.20;4.10;;;9.00;54.50;;;;;;5057648;28;20479;-87
2021/12/12 04:04:10;;;;;;;4.90;3.30;;;9.00;54.70;;;;;;5031753;28;20548;-86
2021/12/12 04:06:38;;;;;;;10.27;3.40;;;9.00;54.60;;;;;;5029011;28;20448;-87
2021/12/12 04:09:06;;;;;;;6.00;4.03;;;8.90;54.10;;;;;;5040240;28;20801;-89
2021/12/12 04:11:37;;;;;;;9.07;5.20;;;8.90;54.00;;;;;;5059295;28;20467;-87
2021/12/12 04:14:07;;;;;;;5.90;3.50;;;8.80;54.00;;;;;;5048843;28;20639;-87
2021/12/12 04:16:40;;;;;;;4.07;2.90;;;8.70;54.60;;;;;;5073715;28;20460;-86
2021/12/12 04:19:08;;;;;;;8.13;4.03;;;8.50;53.90;;;;;;5054748;28;21016;-86
2021/12/12 04:21:36;;;;;;;7.00;3.80;;;8.30;54.10;;;;;;5037424;28;20445;-88
2021/12/12 04:24:05;;;;;;;12.80;6.20;;;8.10;54.50;;;;;;5058485;28;20816;-87
2021/12/12 04:26:34;;;;;;;9.20;5.30;;;8.00;55.00;;;;;;5074136;28;20460;-87
2021/12/12 04:29:04;;;;;;;8.53;5.23;;;7.90;55.00;;;;;;5074817;28;20469;-89
2021/12/12 04:31:32;;;;;;;14.43;6.00;;;7.80;55.40;;;;;;5075916;28;20459;-87
2021/12/12 04:34:01;;;;;;;12.60;5.63;;;7.80;55.70;;;;;;5059267;28;21089;-87
2021/12/12 04:36:32;;;;;;;5.30;4.37;;;7.80;55.50;;;;;;5053254;28;20456;-87
2021/12/12 04:39:07;;;;;;;8.30;4.87;;;7.60;55.80;;;;;;5062178;28;20472;-86
2021/12/12 04:41:34;;;;;;;5.03;3.87;;;7.40;56.10;;;;;;5057348;28;20467;-89
2021/12/12 04:44:01;;;;;;;7.10;4.20;;;7.30;56.30;;;;;;5072598;28;20947;-87
2021/12/12 04:49:54;;;;;;;7.00;4.20;;;7.20;56.70;;;;;;5059381;28;20463;-87
2021/12/12 04:52:09;;;;;;;7.57;3.77;;;7.30;56.50;;;;;;5054192;28;20444;-87
2021/12/12 04:54:43;;;;;;;5.10;3.60;;;7.30;56.40;;;;;;5046009;28;20448;-87
2021/12/12 04:57:16;;;;;;;5.83;3.30;;;7.20;56.50;;;;;;5071293;28;20460;-87
2021/12/12 04:59:47;;;;;;;4.50;3.10;;;7.10;56.70;;;;;;5066904;28;20475;-87
2021/12/12 05:02:20;;;;;;;7.17;2.80;;;7.10;56.90;;;;;;5044381;28;20447;-87
2021/12/12 05:05:00;;;;;;;9.07;3.30;;;7.10;56.70;;;;;;5072567;28;20459;-86
2021/12/12 05:07:35;;;;;;;4.30;3.50;;;7.20;56.50;;;;;;5072734;28;20483;-87
2021/12/12 05:10:06;;;;;;;5.17;3.10;;;7.40;55.90;;;;;;5054414;28;20476;-87
2021/12/12 05:12:38;;;;;;;3.93;2.63;;;7.20;55.80;;;;;;5039555;28;20530;-86
2021/12/12 05:15:10;;;;;;;4.83;2.87;;;7.20;55.60;;;;;;5056416;28;20460;-89
2021/12/12 05:17:42;;;;;;;8.70;3.23;;;7.30;55.70;;;;;;5073170;28;20469;-86
2021/12/12 05:20:15;;;;;;;8.93;3.83;;;7.30;55.50;;;;;;5062720;28;20459;-86
2021/12/12 05:22:47;;;;;;;3.63;3.33;;;7.50;55.20;;;;;;5057589;28;20742;-87
2021/12/12 05:25:18;;;;;;;12.27;3.87;;;7.60;54.70;;;;;;5071730;28;20448;-88
2021/12/12 05:27:48;;;;;;;8.60;4.10;;;7.60;54.30;;;;;;5029692;28;20470;-87
2021/12/12 05:30:19;;;;;;;8.77;4.00;;;7.60;54.60;;;;;;5058672;28;20491;-86
2021/12/12 05:32:48;;;;;;;6.33;3.50;;;7.40;54.60;;;;;;5040318;28;20453;-88
2021/12/12 05:35:19;;;;;;;5.17;3.20;;;7.50;54.70;;;;;;5053522;28;20454;-87
2021/12/12 05:37:47;;;;;;;3.43;3.10;;;7.60;55.20;;;;;;5043350;28;20467;-86
2021/12/12 05:40:15;;;;;;;5.80;3.13;;;7.60;54.40;;;;;;5035799;28;20468;-87
2021/12/12 05:42:44;;;;;;;3.60;2.77;;;7.60;54.30;;;;;;5045055;28;20463;-87
2021/12/12 05:45:11;;;;;;;7.60;4.37;;;7.60;54.20;;;;;;5053040;28;20456;-84
2021/12/12 05:47:39;;;;;;;6.70;3.50;;;7.50;54.10;;;;;;5071745;28;20901;-87
2021/12/12 05:50:08;;;;;;;8.03;3.73;;;7.50;54.10;;;;;;5041868;28;20484;-89
2021/12/12 05:52:37;;;;;;;3.83;3.50;;;7.50;54.00;;;;;;5024724;28;20983;-87
2021/12/12 05:55:06;;;;;;;4.63;3.80;;;7.40;54.00;;;;;;5052750;28;20460;-88
2021/12/12 05:57:34;;;;;;;11.00;6.10;;;7.30;54.20;;;;;;5055218;28;20680;-87
2021/12/12 06:00:06;;;;;;;8.63;5.20;;;7.20;54.40;;;;;;5037576;28;20678;-88
2021/12/12 06:02:34;;;;;;;11.70;5.20;;;7.10;54.60;;;;;;5042599;28;20830;-88
2021/12/12 06:05:01;;;;;;;10.37;4.30;;;7.10;54.90;;;;;;5054304;28;20471;-88
2021/12/12 06:07:29;;;;;;;6.53;4.33;;;7.10;54.90;;;;;;5072996;28;20951;-88
2021/12/12 06:09:57;;;;;;;7.40;3.57;;;7.10;55.00;;;;;;5053890;28;20844;-87
2021/12/12 06:12:25;;;;;;;9.33;5.60;;;7.00;54.90;;;;;;5053267;28;20486;-89
2021/12/12 06:14:54;;;;;;;9.37;5.37;;;6.90;55.00;;;;;;5071328;28;20459;-88
2021/12/12 06:17:22;;;;;;;10.47;5.13;;;6.80;55.10;;;;;;5052995;28;20464;-86
2021/12/12 06:19:51;;;;;;;6.07;4.53;;;6.70;55.60;;;;;;5054654;28;20475;-87
2021/12/12 06:22:18;;;;;;;7.23;3.53;;;6.70;55.80;;;;;;5059640;28;20460;-86
2021/12/12 06:24:45;;;;;;;5.40;3.00;;;6.80;55.60;;;;;;5041358;28;20980;-87
2021/12/12 06:27:16;;;;;;;10.00;3.40;;;6.70;55.90;;;;;;5057191;28;20512;-87
2021/12/12 06:29:46;;;;;;;14.30;3.57;;;6.80;55.70;;;;;;5077028;28;20475;-89
2021/12/12 06:32:14;;;;;;;10.00;5.03;;;6.90;55.50;;;;;;5060413;28;20452;-86
2021/12/12 06:34:41;;;;;;;12.53;5.20;;;7.00;55.20;;;;;;5062225;28;20455;-86
2021/12/12 06:37:09;;;;;;;8.83;4.50;;;6.90;55.40;;;;;;5071996;28;20455;-85
2021/12/12 06:39:37;;;;;;;4.10;3.00;;;6.90;55.20;;;;;;5056774;28;20478;-86
2021/12/12 06:42:06;;;;;;;7.53;3.50;;;6.80;55.30;;;;;;5073926;28;20484;-87
2021/12/12 06:44:37;;;;;;;3.57;2.70;;;6.70;55.80;;;;;;5050583;28;20459;-85
2021/12/12 06:47:05;;;;;;;5.93;2.83;;;6.80;55.70;;;;;;5057022;28;20468;-86
2021/12/12 06:49:32;;;;;;;5.13;2.87;;;6.80;55.80;;;;;;5048843;28;20479;-85
2021/12/12 06:52:01;;;;;;;4.63;3.07;;;6.80;55.80;;;;;;5047629;28;20484;-85
2021/12/12 06:54:30;;;;;;;4.07;2.77;;;6.70;55.90;;;;;;5073473;28;20447;-85
2021/12/12 06:57:02;;;;;;;5.90;3.27;;;6.80;55.90;;;;;;5060994;28;20490;-86
2021/12/12 06:59:31;;;;;;;5.40;3.13;;;6.90;55.70;;;;;;5036849;28;20480;-85
2021/12/12 07:02:01;;;;;;;8.17;5.17;;;6.80;55.80;;;;;;5056108;28;20463;-85
2021/12/12 07:04:29;;;;;;;4.10;2.90;;;6.80;56.50;;;;;;5031290;28;20460;-85
2021/12/12 07:06:59;;;;;;;9.53;4.77;;;6.90;55.80;;;;;;5074286;28;20946;-85
2021/12/12 07:09:30;;;;;;;7.57;4.10;;;6.80;55.90;;;;;;5057869;28;20848;-85
2021/12/12 07:12:00;;;;;;;5.47;3.50;;;6.60;56.50;;;;;;5049043;28;20472;-85
2021/12/12 07:14:28;;;;;;;5.77;3.50;;;6.80;56.10;;;;;;5057637;28;20542;-85
2021/12/12 07:16:56;;;;;;;9.27;6.17;;;6.90;55.90;;;;;;5074057;28;20456;-88
2021/12/12 07:19:25;;;;;;;8.10;4.30;;;7.10;55.60;;;;;;5059933;28;20468;-87
2021/12/12 07:21:52;;;;;;;12.10;5.87;;;6.90;55.50;;;;;;5075568;28;20940;-85
2021/12/12 07:24:20;;;;;;;13.10;6.90;;;6.60;56.10;;;;;;5055678;28;20464;-85
2021/12/12 07:26:48;;;;;;;9.63;6.10;;;6.60;56.50;;;;;;5056022;28;20459;-86
2021/12/12 07:29:15;;;;;;;7.43;4.73;;;6.60;56.60;;;;;;5073139;28;20502;-87
2021/12/12 07:31:43;;;;;;;14.07;6.33;;;6.60;56.50;;;;;;5057881;28;20475;-86
2021/12/12 07:34:13;;;;;;;11.07;5.57;;;6.90;56.40;;;;;;5031829;28;20449;-85
2021/12/12 07:36:46;;;;;;;6.70;5.63;;;7.00;56.10;;;;;;5072666;28;20483;-85
2021/12/12 07:39:16;;;;;;;10.07;4.70;;;7.10;55.70;;;;;;5071615;28;20521;-85
2021/12/12 07:41:46;;;;;;;7.77;5.90;;;7.10;55.60;;;;;;5072277;28;20459;-87
2021/12/12 07:44:16;;;;;;;11.67;7.17;;;7.30;55.40;;;;;;5073104;28;20475;-86
2021/12/12 07:46:45;;;;;;;15.00;9.43;;;7.50;55.20;;;;;;5057148;28;20541;-86
2021/12/12 07:49:13;;;;;;;8.30;6.07;;;7.50;55.00;;;;;;5063602;28;20570;-87
2021/12/12 07:51:43;;;;;;;14.80;7.00;;;7.50;55.00;;;;;;5053537;28;20482;-86
2021/12/12 07:54:10;;;;;;;15.70;9.47;;;7.50;54.60;;;;;;5044456;28;21042;-86
2021/12/12 07:56:40;;;;;;;13.93;6.43;;;7.50;55.00;;;;;;5073853;28;20521;-86
2021/12/12 07:59:10;;;;;;;9.30;5.63;;;7.50;55.10;;;;;;5074289;28;20502;-86
2021/12/12 08:01:41;;;;;;;5.30;4.10;;;7.50;54.90;;;;;;5064554;28;20546;-86
2021/12/12 08:04:09;;;;;;;13.33;4.40;;;7.50;54.70;;;;;;5046887;28;21194;-86
2021/12/12 08:06:36;;;;;;;7.70;3.60;;;7.50;54.90;;;;;;5073258;28;20452;-87
2021/12/12 08:09:05;;;;;;;4.70;3.73;;;7.50;55.00;;;;;;5074404;28;20863;-87
2021/12/12 08:11:34;;;;;;;6.23;4.40;;;7.60;55.00;;;;;;5072378;28;21243;-86
2021/12/12 08:14:03;;;;;;;6.07;4.37;;;7.60;54.90;;;;;;5053936;28;21043;-85
2021/12/12 08:16:30;;;;;;;3.60;3.27;;;7.50;54.80;;;;;;5055420;28;20475;-86
2021/12/12 08:18:58;;;;;;;6.10;3.77;;;7.60;55.00;;;;;;5057878;28;20487;-87
2021/12/12 08:21:26;;;;;;;6.73;4.00;;;7.70;55.00;;;;;;5075994;28;20786;-87
2021/12/12 08:23:55;;;;;;;12.70;3.33;;;7.70;54.70;;;;;;5056950;28;20482;-86
2021/12/12 08:26:24;;;;;;;8.43;3.03;;;7.70;54.70;;;;;;5070387;28;20453;-86
2021/12/12 08:28:51;;;;;;;4.93;3.03;;;7.70;54.60;;;;;;5053641;28;20483;-87
2021/12/12 08:31:18;;;;;;;18.03;8.30;;;7.80;54.50;;;;;;5071169;28;21050;-86
2021/12/12 08:33:46;;;;;;;8.43;5.20;;;7.60;54.80;;;;;;5030306;28;20449;-88
2021/12/12 08:36:15;;;;;;;4.70;4.07;;;7.40;54.70;;;;;;5075274;28;20494;-85
2021/12/12 08:38:42;;;;;;;6.33;3.03;;;7.60;55.00;;;;;;5053233;28;20967;-85
2021/12/12 08:41:09;;;;;;;9.70;4.70;;;7.50;54.60;;;;;;5069238;28;20959;-86
2021/12/12 08:43:39;;;;;;;8.50;3.10;;;7.50;55.00;;;;;;5073648;28;20575;-86
2021/12/12 08:46:10;;;;;;;5.20;2.97;;;7.60;55.00;;;;;;5056349;28;20451;-86
2021/12/12 08:48:42;;;;;;;4.33;3.87;;;7.80;55.00;;;;;;5073948;28;20490;-86
2021/12/12 08:51:13;;;;;;;14.07;5.50;;;7.90;54.70;;;;;;5073349;28;20479;-86
2021/12/12 08:53:44;;;;;;;7.57;3.80;;;7.70;54.30;;;;;;5053217;28;22066;-85
2021/12/12 08:56:18;;;;;;;6.90;3.00;;;7.90;54.60;;;;;;5074190;28;20510;-86
2021/12/12 08:58:48;;;;;;;14.13;4.30;;;7.80;54.50;;;;;;5074083;28;20492;-87
2021/12/12 09:01:19;;;;;;;16.40;6.00;;;7.70;54.50;;;;;;5053228;28;20449;-86
2021/12/12 09:03:57;;;;;;;9.73;6.00;;;7.40;55.10;;;;;;5056456;28;20483;-85
2021/12/12 09:06:29;;;;;;;11.87;6.40;;;7.50;55.10;;;;;;5069890;28;20465;-86
2021/12/12 09:08:59;;;;;;;14.57;5.80;;;7.50;55.10;;;;;;5056072;28;20810;-86
2021/12/12 09:11:30;;;;;;;6.40;5.43;;;7.50;54.90;;;;;;5045310;28;21035;-86
2021/12/12 09:14:03;;;;;;;7.60;4.33;;;7.70;55.90;;;;;;5040214;28;20445;-86
2021/12/12 09:16:36;;;;;;;8.97;4.33;;;7.80;54.70;;;;;;5058991;28;20896;-85
2021/12/12 09:19:07;;;;;;;3.30;2.90;;;8.00;54.80;;;;;;5053505;28;20473;-85
2021/12/12 09:21:48;;;;;;;5.40;3.37;;;8.20;54.50;;;;;;5038292;28;20459;-85
2021/12/12 09:24:24;;;;;;;4.17;3.33;;;8.10;54.70;;;;;;5055661;28;20941;-87
2021/12/12 09:26:55;;;;;;;6.63;3.80;;;8.10;54.50;;;;;;5070708;28;20483;-85
2021/12/12 09:29:29;;;;;;;4.10;3.20;;;8.20;54.20;;;;;;5034880;28;20488;-86
2021/12/12 09:32:03;;;;;;;4.67;2.90;;;8.10;54.20;;;;;;5062685;28;20478;-85
2021/12/12 09:34:36;;;;;;;6.80;3.87;;;8.20;54.20;;;;;;5071745;28;20436;-86
2021/12/12 09:37:08;;;;;;;6.70;3.67;;;8.20;54.00;;;;;;5038633;28;20842;-85
2021/12/12 09:39:42;;;;;;;9.70;3.83;;;8.10;54.10;;;;;;5046507;28;20482;-85
2021/12/12 09:42:28;;;;;;;7.20;3.90;;;8.20;53.90;;;;;;5054889;28;20459;-85
2021/12/12 09:45:48;;;;;;;5.73;4.63;;;8.20;54.10;;;;;;5053870;28;20456;-85
2021/12/12 09:51:39;;;;;;;3.43;2.83;;;8.10;53.90;;;;;;4959400;28;20459;-85
2021/12/12 09:54:20;;;;;;;8.80;4.13;;;7.80;54.90;;;;;;5054912;28;20521;-85
2021/12/12 09:56:52;;;;;;;2.20;2.00;;;8.00;55.20;;;;;;5055307;28;20456;-85
2021/12/12 09:59:31;;;;;;;7.93;3.03;;;7.90;54.50;;;;;;5039915;28;20471;-85
2021/12/12 10:02:08;;;;;;;4.67;2.90;;;7.80;55.20;;;;;;5060381;28;20439;-86
2021/12/12 10:04:53;;;;;;;4.10;2.43;;;7.90;55.10;;;;;;5073318;28;20456;-87
2021/12/12 10:07:34;;;;;;;5.33;3.07;;;7.80;54.60;;;;;;5053678;28;20959;-84
2021/12/12 10:10:06;;;;;;;4.83;3.10;;;7.90;54.70;;;;;;5061492;28;20974;-86
2021/12/12 10:12:39;;;;;;;4.80;3.70;;;8.10;55.10;;;;;;5074461;28;20533;-87
2021/12/12 10:15:12;;;;;;;2.90;2.40;;;8.40;54.60;;;;;;5052047;28;20457;-86
2021/12/12 10:17:45;;;;;;;4.17;3.70;;;8.50;54.10;;;;;;5054230;28;20554;-86
2021/12/12 10:20:19;;;;;;;4.90;3.33;;;8.60;53.50;;;;;;5038996;28;20510;-86
2021/12/12 10:23:02;;;;;;;4.03;2.53;;;8.50;53.90;;;;;;5038696;28;20967;-86
2021/12/12 10:25:34;;;;;;;3.40;3.10;;;8.40;54.20;;;;;;5056265;28;20444;-86
2021/12/12 10:28:11;;;;;;;4.30;2.73;;;8.40;54.40;;;;;;5037511;28;20447;-85
2021/12/12 10:30:47;;;;;;;3.60;2.83;;;8.50;54.30;;;;;;5072253;28;20554;-85
2021/12/12 10:33:19;;;;;;;5.53;3.67;;;8.60;54.30;;;;;;5054135;28;20458;-86
2021/12/12 10:35:51;;;;;;;4.90;2.93;;;8.50;53.00;;;;;;5072079;28;20459;-85
2021/12/12 10:38:25;;;;;;;6.53;3.33;;;8.70;53.80;;;;;;5052911;28;20474;-87
2021/12/12 10:40:58;;;;;;;3.63;2.83;;;8.70;53.60;;;;;;5069646;28;21066;-86
2021/12/12 10:43:28;;;;;;;3.57;2.53;;;8.70;53.80;;;;;;5071882;28;20463;-87
2021/12/12 10:45:59;;;;;;;8.87;2.93;;;8.90;53.40;;;;;;5073092;28;21077;-85
2021/12/12 10:48:35;;;;;;;5.17;2.90;;;9.00;53.20;;;;;;5055642;28;20468;-85
2021/12/12 10:51:06;;;;;;;4.90;3.30;;;9.10;53.70;;;;;;5056271;28;20464;-85
2021/12/12 10:53:40;;;;;;;2.40;2.20;;;9.10;52.90;;;;;;5027949;28;20468;-85
2021/12/12 10:56:20;;;;;;;6.40;3.13;;;9.10;52.80;;;;;;5054516;28;20522;-85
2021/12/12 10:58:50;;;;;;;5.93;3.47;;;9.00;52.70;;;;;;5055346;28;20503;-86
2021/12/12 11:01:23;;;;;;;3.27;3.00;;;9.10;53.10;;;;;;5040016;28;20823;-87
2021/12/12 11:03:56;;;;;;;3.73;2.77;;;9.20;53.10;;;;;;5038744;28;20449;-86
2021/12/12 11:06:27;;;;;;;2.50;2.30;;;9.20;52.60;;;;;;5044898;28;20543;-85
2021/12/12 11:09:00;;;;;;;4.83;2.73;;;9.20;53.00;;;;;;5075692;28;20492;-88
2021/12/12 11:11:32;;;;;;;3.23;2.23;;;9.30;53.00;;;;;;5057616;28;20841;-85
2021/12/12 11:14:12;;;;;;;8.10;3.20;;;9.20;53.30;;;;;;5040179;28;20967;-85
2021/12/12 11:16:45;;;;;;;3.10;2.57;;;8.80;53.70;;;;;;5058042;28;20460;-85
2021/12/12 11:19:27;;;;;;;3.87;2.60;;;8.90;53.90;;;;;;5077372;28;21001;-85
2021/12/12 11:22:01;;;;;;;5.30;3.10;;;9.20;53.80;;;;;;5074434;28;20526;-85
2021/12/12 11:24:32;;;;;;;3.80;3.17;;;9.30;52.60;;;;;;5075220;28;20482;-86
2021/12/12 11:27:03;;;;;;;4.83;3.00;;;9.30;52.90;;;;;;5059847;28;20464;-86
2021/12/12 11:29:33;;;;;;;6.23;2.33;;;9.30;53.10;;;;;;5057537;28;20487;-86
2021/12/12 11:32:04;;;;;;;4.77;3.13;;;9.30;53.20;;;;;;5059920;28;20885;-87
2021/12/12 11:34:33;;;;;;;4.40;3.27;;;9.40;53.30;;;;;;5042846;28;20440;-86
2021/12/12 11:37:12;;;;;;;4.50;3.10;;;9.40;53.10;;;;;;5055373;28;20465;-86
2021/12/12 11:39:44;;;;;;;5.43;2.60;;;9.30;52.80;;;;;;5064267;28;20472;-86
2021/12/12 11:42:20;;;;;;;3.13;2.37;;;9.00;53.60;;;;;;5055917;28;20447;-86
2021/12/12 11:44:53;;;;;;;11.70;2.47;;;9.00;53.80;;;;;;5058136;28;20461;-88
2021/12/12 11:47:30;;;;;;;4.73;2.53;;;8.90;53.90;;;;;;5056645;28;20460;-84
2021/12/12 11:50:04;;;;;;;5.53;2.73;;;9.00;54.10;;;;;;5058786;28;20468;-86
2021/12/12 11:52:50;;;;;;;5.80;3.50;;;9.00;53.90;;;;;;5076407;28;20472;-86
2021/12/12 11:55:22;;;;;;;7.47;3.43;;;9.00;53.80;;;;;;5075153;28;20463;-86
2021/12/12 11:57:55;;;;;;;8.20;4.80;;;9.10;54.20;;;;;;5039885;28;20451;-86
2021/12/12 12:00:31;;;;;;;4.67;3.47;;;9.20;53.90;;;;;;5072139;28;20959;-86
2021/12/12 12:03:14;;;;;;;2.80;2.50;;;9.20;53.40;;;;;;5076202;28;20451;-86
2021/12/12 12:05:57;;;;;;;5.80;2.40;;;9.00;53.80;;;;;;5075890;28;20451;-84
2021/12/12 12:08:35;;;;;;;3.60;2.70;;;8.80;54.90;;;;;;5057044;28;20477;-86
2021/12/12 12:11:19;;;;;;;4.23;2.10;;;9.20;54.50;;;;;;5055134;28;20449;-86
2021/12/12 12:13:55;;;;;;;3.17;2.03;;;9.30;54.10;;;;;;5048541;28;20456;-86
2021/12/12 12:16:31;;;;;;;2.40;2.13;;;9.30;53.10;;;;;;5074476;28;20468;-87
2021/12/12 12:19:05;;;;;;;5.00;2.63;;;9.40;53.40;;;;;;5062854;28;20774;-87
2021/12/12 12:21:41;;;;;;;5.20;2.20;;;9.30;53.40;;;;;;5043461;28;20447;-88
2021/12/12 12:24:20;;;;;;;7.40;2.10;;;9.10;54.10;;;;;;5057095;28;20452;-88
2021/12/12 12:26:52;;;;;;;2.37;2.17;;;9.10;54.40;;;;;;5056069;28;20513;-86
2021/12/12 12:30:08;;;;;;;7.57;2.73;;;9.10;54.50;;;;;;5073357;28;20472;-86
2021/12/12 12:33:27;;;;;;;2.03;1.93;;;9.10;53.90;;;;;;5063730;28;20527;-86
2021/12/12 12:36:32;;;;;;;4.97;3.33;;;9.20;54.30;;;;;;5056380;28;20490;-86
2021/12/12 12:40:03;;;;;;;3.90;2.90;;;8.90;54.60;;;;;;5055845;28;20483;-86
2021/12/12 12:43:19;;;;;;;7.50;2.63;;;9.00;53.90;;;;;;5064398;28;20528;-87
2021/12/12 12:46:25;;;;;;;2.27;2.07;;;8.70;54.90;;;;;;5012668;28;20463;-86
2021/12/12 12:49:29;;;;;;;9.23;2.53;;;8.90;54.80;;;;;;5062758;28;20476;-88
2021/12/12 12:52:37;;;;;;;3.40;2.20;;;9.00;54.60;;;;;;5052202;28;20500;-86
2021/12/12 12:55:30;;;;;;;4.20;2.17;;;9.10;54.00;;;;;;5074526;28;20460;-87
2021/12/12 12:58:06;;;;;;;4.50;2.67;;;9.10;54.60;;;;;;5071877;28;20460;-86
2021/12/12 13:00:35;;;;;;;2.50;2.30;;;9.20;54.70;;;;;;5057444;28;20444;-86
2021/12/12 13:03:28;;;;;;;2.03;1.90;;;9.40;54.10;;;;;;5073141;28;20547;-86
2021/12/12 13:06:19;;;;;;;3.40;2.10;;;9.40;54.10;;;;;;5055993;28;20975;-85
2021/12/12 13:09:21;;;;;;;5.47;2.70;;;9.40;53.30;;;;;;4988390;28;20571;-86
2021/12/12 13:12:21;;;;;;;5.77;2.50;;;9.40;54.20;;;;;;5064536;28;20973;-86
2021/12/12 13:14:53;;;;;;;4.90;2.10;;;9.50;53.20;;;;;;5056045;28;20897;-86
2021/12/12 13:17:42;;;;;;;3.00;2.47;;;9.40;54.00;;;;;;5046326;28;20464;-88
2021/12/12 13:20:28;;;;;;;2.20;2.00;;;9.20;54.30;;;;;;5074064;28;20968;-87
2021/12/12 13:23:10;;;;;;;5.73;2.50;;;9.20;54.10;;;;;;5056348;28;20448;-84
2021/12/12 13:25:41;;;;;;;3.47;1.57;;;9.20;54.00;;;;;;5073061;28;20461;-86
2021/12/12 13:28:18;;;;;;;4.23;2.37;;;9.30;53.70;;;;;;5055283;28;21083;-86
2021/12/12 13:30:59;;;;;;;4.17;1.83;;;9.20;54.00;;;;;;5035031;28;20460;-86
2021/12/12 13:33:33;;;;;;;5.73;2.67;;;9.20;54.30;;;;;;5055091;28;20491;-87
2021/12/12 13:36:14;;;;;;;3.50;2.10;;;9.30;54.60;;;;;;5040764;28;21097;-88
2021/12/12 13:38:58;;;;;;;6.93;2.97;;;9.50;54.20;;;;;;5026008;28;20488;-86
2021/12/12 13:41:38;;;;;;;4.30;2.20;;;9.60;53.70;;;;;;5060028;28;20454;-86
2021/12/12 13:44:17;;;;;;;6.23;2.50;;;9.80;53.60;;;;;;5055614;28;20451;-87